Time;durP1;ratioP1;P1;durP2;ratioP2;P2;SDS_P1;SDS_P2;PMS_P1;PMS_P2;Temp;Humidity;BMP_temperature;BMP_pressure;BME280_temperature;BME280_humidity;BME280_pressure;Samples;Min_cycle;Max_cycle;Signal;HPM_P1;HPM_P2
2023/11/01 00:00:12;;;;;;;3.22;1.00;;;8.70;99.90;;;;;;5011106;28;20045;-63
2023/11/01 00:02:43;;;;;;;0.93;0.70;;;8.70;99.90;;;;;;5003136;28;20498;-63
2023/11/01 00:05:15;;;;;;;1.95;0.90;;;8.80;99.90;;;;;;4993229;28;20427;-63
2023/11/01 00:07:47;;;;;;;2.35;1.00;;;8.80;99.90;;;;;;5008234;28;20144;-63
2023/11/01 00:10:19;;;;;;;2.00;1.05;;;8.80;99.90;;;;;;5005398;28;20042;-63
2023/11/01 00:12:51;;;;;;;1.58;0.73;;;8.80;99.90;;;;;;5000500;28;20051;-63
2023/11/01 00:15:22;;;;;;;2.28;1.02;;;8.90;99.90;;;;;;5024757;28;20394;-63
2023/11/01 00:17:49;;;;;;;1.70;0.88;;;8.90;99.90;;;;;;5011207;28;20517;-63
2023/11/01 00:20:21;;;;;;;0.90;0.50;;;9.00;99.90;;;;;;5007727;28;20034;-63
2023/11/01 00:22:53;;;;;;;1.77;0.75;;;9.10;99.90;;;;;;5006806;28;20057;-63
2023/11/01 00:25:24;;;;;;;3.00;0.82;;;9.10;99.90;;;;;;5024599;28;20061;-64
2023/11/01 00:27:56;;;;;;;2.03;0.80;;;9.10;99.90;;;;;;5027322;28;20049;-64
2023/11/01 00:30:28;;;;;;;2.38;1.23;;;9.20;99.90;;;;;;4998875;28;20669;-64
2023/11/01 00:33:00;;;;;;;4.78;0.80;;;9.20;99.90;;;;;;5015711;28;20562;-63
2023/11/01 00:35:32;;;;;;;2.55;0.90;;;9.20;99.90;;;;;;5025931;28;20037;-63
2023/11/01 00:37:59;;;;;;;3.03;1.15;;;9.20;99.90;;;;;;5022833;28;20045;-64
2023/11/01 00:40:31;;;;;;;2.47;0.93;;;9.30;99.90;;;;;;5028247;28;20045;-63
2023/11/01 00:43:04;;;;;;;1.85;0.90;;;9.30;99.90;;;;;;5023173;28;20073;-64
2023/11/01 00:45:35;;;;;;;3.30;0.80;;;9.30;99.90;;;;;;5012867;28;20074;-63
2023/11/01 00:48:07;;;;;;;0.90;0.70;;;9.40;99.90;;;;;;5014802;28;20033;-63
2023/11/01 00:50:39;;;;;;;3.78;0.73;;;9.40;99.90;;;;;;5036728;28;20046;-64
2023/11/01 00:53:06;;;;;;;1.52;0.70;;;9.40;99.90;;;;;;5007826;28;20056;-63
2023/11/01 00:55:38;;;;;;;2.47;0.98;;;9.40;99.90;;;;;;5011371;28;20046;-64
2023/11/01 00:58:10;;;;;;;2.20;0.60;;;9.40;99.90;;;;;;5030334;28;20067;-63
2023/11/01 01:00:42;;;;;;;1.90;0.80;;;9.50;99.90;;;;;;5027201;28;20037;-63
2023/11/01 01:03:13;;;;;;;3.33;0.90;;;9.50;99.90;;;;;;5013711;28;20046;-64
2023/11/01 01:05:45;;;;;;;1.58;0.70;;;9.50;99.90;;;;;;5018886;28;20514;-63
2023/11/01 01:08:12;;;;;;;1.85;0.90;;;9.40;99.90;;;;;;5020265;28;20042;-63
2023/11/01 01:10:44;;;;;;;1.27;0.60;;;9.40;99.90;;;;;;5021926;28;20045;-63
2023/11/01 01:13:16;;;;;;;2.15;0.60;;;9.50;99.90;;;;;;5017320;28;20045;-63
2023/11/01 01:15:48;;;;;;;1.40;0.68;;;9.50;99.90;;;;;;5014063;28;20069;-64
2023/11/01 01:18:20;;;;;;;1.30;0.77;;;9.50;99.90;;;;;;5014677;28;20153;-63
2023/11/01 01:20:52;;;;;;;1.60;0.65;;;9.50;99.90;;;;;;5012877;28;20056;-63
2023/11/01 01:23:24;;;;;;;0.80;0.60;;;9.50;99.90;;;;;;4992698;28;20054;-63
2023/11/01 01:25:55;;;;;;;1.85;0.50;;;9.50;99.90;;;;;;5026791;28;20038;-63
2023/11/01 01:28:27;;;;;;;1.92;0.60;;;9.50;99.90;;;;;;5030272;28;20807;-63
2023/11/01 01:30:54;;;;;;;0.98;0.40;;;9.50;99.90;;;;;;5019581;28;20574;-63
2023/11/01 01:33:26;;;;;;;1.60;0.50;;;9.50;99.90;;;;;;5013901;28;20046;-63
2023/11/01 01:35:59;;;;;;;1.42;0.70;;;9.50;99.90;;;;;;5021570;28;20064;-63
2023/11/01 01:38:26;;;;;;;1.67;0.70;;;9.50;99.90;;;;;;5021305;28;20520;-63
2023/11/01 01:40:57;;;;;;;0.60;0.40;;;9.50;99.90;;;;;;5012046;28;20065;-63
2023/11/01 01:43:29;;;;;;;1.88;0.63;;;9.50;99.90;;;;;;5011812;28;20076;-63
2023/11/01 01:46:13;;;;;;;1.77;0.55;;;9.40;99.90;;;;;;5030560;28;20054;-63
2023/11/01 01:48:42;;;;;;;1.33;0.60;;;9.40;99.90;;;;;;5026949;28;20084;-63
2023/11/01 01:51:15;;;;;;;1.67;0.35;;;9.40;99.90;;;;;;5012263;28;20096;-63
2023/11/01 01:53:48;;;;;;;1.60;0.52;;;9.40;99.90;;;;;;5025672;28;20573;-63
2023/11/01 01:56:21;;;;;;;1.38;0.50;;;9.40;99.90;;;;;;5026461;28;20046;-63
2023/11/01 01:58:53;;;;;;;0.75;0.40;;;9.40;99.90;;;;;;5019806;28;20130;-63
2023/11/01 02:01:27;;;;;;;1.05;0.47;;;9.30;99.90;;;;;;5012411;28;20054;-63
2023/11/01 02:03:59;;;;;;;2.97;0.50;;;9.30;99.90;;;;;;5033517;28;20046;-64
2023/11/01 02:06:31;;;;;;;1.75;0.50;;;9.30;99.90;;;;;;4998005;28;20097;-63
2023/11/01 02:09:05;;;;;;;3.85;0.57;;;9.20;99.90;;;;;;5016656;28;20452;-63
2023/11/01 02:11:37;;;;;;;0.85;0.40;;;9.20;99.90;;;;;;5033199;28;20046;-63
2023/11/01 02:14:08;;;;;;;1.77;0.60;;;9.20;99.90;;;;;;5020768;28;20125;-64
2023/11/01 02:16:36;;;;;;;0.95;0.50;;;9.10;99.90;;;;;;5021925;28;20041;-63
2023/11/01 02:19:08;;;;;;;0.60;0.43;;;9.10;99.90;;;;;;5009349;28;20576;-64
2023/11/01 02:21:40;;;;;;;1.60;0.50;;;9.00;99.90;;;;;;5024981;28;20525;-63
2023/11/01 02:24:12;;;;;;;0.98;0.50;;;9.00;99.90;;;;;;5028563;28;20053;-63
2023/11/01 02:26:39;;;;;;;0.82;0.45;;;8.90;99.90;;;;;;5028019;28;20033;-63
2023/11/01 02:29:11;;;;;;;2.08;0.60;;;8.90;99.90;;;;;;5019232;28;20037;-63
2023/11/01 02:31:43;;;;;;;1.13;0.40;;;8.90;99.90;;;;;;5027691;28;20065;-63
2023/11/01 02:34:16;;;;;;;0.77;0.50;;;8.90;99.90;;;;;;5021666;28;20060;-64
2023/11/01 02:36:49;;;;;;;1.85;0.65;;;8.80;99.90;;;;;;5002323;28;20046;-63
2023/11/01 02:39:21;;;;;;;1.67;0.60;;;8.90;99.90;;;;;;5026707;28;20073;-64
2023/11/01 02:41:52;;;;;;;2.80;0.50;;;8.80;99.90;;;;;;5016633;28;20052;-63
2023/11/01 02:44:24;;;;;;;1.55;0.40;;;8.80;99.90;;;;;;5010939;28;20046;-63
2023/11/01 02:46:51;;;;;;;1.10;0.43;;;8.80;99.90;;;;;;5027321;28;20045;-63
2023/11/01 02:49:23;;;;;;;0.50;0.30;;;8.80;99.90;;;;;;5009254;28;20522;-63
2023/11/01 02:51:55;;;;;;;1.10;0.40;;;8.80;99.90;;;;;;5024340;28;20791;-64
2023/11/01 02:54:27;;;;;;;1.30;0.60;;;8.70;99.90;;;;;;5006787;28;20822;-63
2023/11/01 02:56:59;;;;;;;1.48;0.50;;;8.70;99.90;;;;;;5003482;28;20050;-63
2023/11/01 02:59:27;;;;;;;2.35;1.65;;;8.60;99.90;;;;;;5027697;28;20115;-63
2023/11/01 03:01:58;;;;;;;2.13;0.50;;;8.60;99.90;;;;;;5024958;28;20084;-63
2023/11/01 03:04:30;;;;;;;0.77;0.40;;;8.50;99.90;;;;;;5022888;28;20141;-63
2023/11/01 03:07:02;;;;;;;1.15;0.47;;;8.50;99.90;;;;;;5016407;28;20045;-63
2023/11/01 03:09:29;;;;;;;1.67;0.68;;;8.40;99.90;;;;;;5018596;28;20050;-63
2023/11/01 03:12:01;;;;;;;0.82;0.45;;;8.40;99.90;;;;;;5018653;28;20168;-63
2023/11/01 03:14:28;;;;;;;1.02;0.40;;;8.40;99.90;;;;;;5023506;28;20814;-64
2023/11/01 03:17:00;;;;;;;2.40;0.50;;;8.30;99.90;;;;;;5017371;28;20042;-64
2023/11/01 03:19:32;;;;;;;2.28;0.60;;;8.40;99.90;;;;;;5033251;28;20468;-63
2023/11/01 03:22:04;;;;;;;0.93;0.40;;;8.40;99.90;;;;;;5008223;28;20080;-63
2023/11/01 03:24:36;;;;;;;1.40;0.40;;;8.30;99.90;;;;;;5012381;28;20690;-63
2023/11/01 03:27:03;;;;;;;1.88;0.50;;;8.30;99.90;;;;;;5010488;28;20387;-64
2023/11/01 03:29:30;;;;;;;0.73;0.45;;;8.30;99.90;;;;;;5027339;28;20120;-63
2023/11/01 03:32:03;;;;;;;2.45;0.38;;;8.30;99.90;;;;;;5024816;28;20502;-63
2023/11/01 03:34:35;;;;;;;1.30;0.40;;;8.30;99.90;;;;;;5026776;28;20049;-63
2023/11/01 03:37:01;;;;;;;0.82;0.30;;;8.30;99.90;;;;;;5013380;28;20136;-64
2023/11/01 03:39:33;;;;;;;2.03;0.38;;;8.30;99.90;;;;;;5020446;28;20052;-63
2023/11/01 03:42:06;;;;;;;4.10;0.68;;;8.30;99.90;;;;;;5013833;28;20060;-63
2023/11/01 03:44:38;;;;;;;0.73;0.50;;;8.30;99.90;;;;;;5017096;28;20046;-64
2023/11/01 03:47:05;;;;;;;1.80;0.50;;;8.30;99.90;;;;;;5017566;28;20820;-63
2023/11/01 03:49:37;;;;;;;2.67;0.40;;;8.30;99.90;;;;;;5025161;28;20053;-63
2023/11/01 03:52:09;;;;;;;2.50;0.40;;;8.30;99.90;;;;;;5021266;28;20126;-63
2023/11/01 03:54:41;;;;;;;1.40;0.68;;;8.40;99.90;;;;;;5019147;28;20045;-63
2023/11/01 03:57:07;;;;;;;0.30;0.30;;;8.40;99.90;;;;;;5024158;28;20068;-63
2023/11/01 03:59:39;;;;;;;1.85;0.47;;;8.40;99.90;;;;;;5009378;28;20042;-63
2023/11/01 04:02:11;;;;;;;1.95;0.30;;;8.40;99.90;;;;;;5016102;28;20413;-63
2023/11/01 04:04:38;;;;;;;1.15;0.30;;;8.40;99.90;;;;;;5010425;28;20049;-63
2023/11/01 04:07:10;;;;;;;0.55;0.25;;;8.50;99.90;;;;;;5030288;28;20061;-63
2023/11/01 04:09:41;;;;;;;1.05;0.40;;;8.50;99.90;;;;;;5023990;28;20409;-63
2023/11/01 04:12:13;;;;;;;1.85;0.32;;;8.50;99.90;;;;;;5019387;28;20033;-64
2023/11/01 04:14:45;;;;;;;3.53;0.40;;;8.50;99.90;;;;;;5020638;28;20451;-63
2023/11/01 04:17:17;;;;;;;0.57;0.25;;;8.50;99.90;;;;;;5023834;28;20045;-63
2023/11/01 04:19:49;;;;;;;0.95;0.40;;;8.40;99.90;;;;;;5025632;28;20414;-63
2023/11/01 04:22:21;;;;;;;0.98;0.28;;;8.50;99.90;;;;;;5006523;28;20042;-64
2023/11/01 04:24:48;;;;;;;0.68;0.30;;;8.60;99.90;;;;;;5017080;28;20481;-63
2023/11/01 04:27:19;;;;;;;1.05;0.22;;;8.70;99.90;;;;;;5018997;28;20409;-63
2023/11/01 04:29:54;;;;;;;1.25;0.30;;;8.70;99.90;;;;;;5031946;28;20564;-64
2023/11/01 04:32:21;;;;;;;1.40;0.28;;;8.70;99.90;;;;;;5014261;28;20401;-63
2023/11/01 04:34:55;;;;;;;10.20;0.80;;;8.70;99.90;;;;;;5014169;28;20718;-63
2023/11/01 04:37:24;;;;;;;1.45;0.55;;;8.70;99.90;;;;;;5016827;28;20050;-64
2023/11/01 04:39:56;;;;;;;1.00;0.30;;;8.70;99.90;;;;;;5018024;28;20528;-63
2023/11/01 04:42:28;;;;;;;1.48;0.30;;;8.60;99.90;;;;;;5018675;28;20144;-63
2023/11/01 04:44:56;;;;;;;1.10;0.28;;;8.70;99.90;;;;;;5019145;28;20044;-63
2023/11/01 04:47:28;;;;;;;0.82;0.20;;;8.60;99.90;;;;;;5022950;28;20490;-63
2023/11/01 04:50:00;;;;;;;1.17;0.47;;;8.60;99.90;;;;;;5019736;28;20128;-63
2023/11/01 04:52:32;;;;;;;2.22;1.40;;;8.60;99.90;;;;;;5026005;28;20045;-63
2023/11/01 04:54:59;;;;;;;1.40;0.50;;;8.60;99.90;;;;;;5027697;28;20041;-63
2023/11/01 04:57:31;;;;;;;1.42;0.47;;;8.50;99.90;;;;;;5012359;28;20050;-63
2023/11/01 05:00:16;;;;;;;1.53;0.90;;;8.50;99.90;;;;;;5030363;28;20611;-63
2023/11/01 05:02:47;;;;;;;2.45;0.80;;;8.40;99.90;;;;;;5015791;28;20049;-63
2023/11/01 05:05:19;;;;;;;2.88;1.25;;;8.30;99.90;;;;;;5014180;28;20045;-63
2023/11/01 05:07:51;;;;;;;1.90;0.85;;;8.20;99.90;;;;;;5016169;28;20530;-63
2023/11/01 05:10:23;;;;;;;0.70;0.50;;;8.10;99.90;;;;;;5010626;28;20779;-62
2023/11/01 05:12:57;;;;;;;3.35;0.82;;;8.10;99.90;;;;;;5012225;28;20156;-64
2023/11/01 05:15:29;;;;;;;1.33;0.70;;;8.00;99.90;;;;;;5025420;28;20498;-63
2023/11/01 05:18:01;;;;;;;2.00;0.73;;;8.00;99.90;;;;;;5021063;28;20038;-63
2023/11/01 05:20:33;;;;;;;1.30;0.70;;;7.90;99.90;;;;;;5021023;28;20078;-63
2023/11/01 05:23:05;;;;;;;1.45;0.80;;;7.90;99.90;;;;;;5015795;28;20072;-63
2023/11/01 05:25:37;;;;;;;5.13;1.30;;;7.80;99.90;;;;;;5027010;28;20037;-63
2023/11/01 05:28:03;;;;;;;1.75;0.98;;;7.80;99.90;;;;;;5027008;28;20132;-63
2023/11/01 05:30:30;;;;;;;3.63;1.00;;;7.70;99.90;;;;;;5026276;28;20129;-63
2023/11/01 05:33:02;;;;;;;1.10;1.00;;;7.60;99.90;;;;;;5029788;28;20041;-63
2023/11/01 05:35:36;;;;;;;2.47;1.65;;;7.60;99.90;;;;;;5021343;28;20056;-63
2023/11/01 05:38:09;;;;;;;1.83;0.80;;;7.50;99.90;;;;;;5027182;28;20716;-63
2023/11/01 05:40:41;;;;;;;2.20;1.00;;;7.50;99.90;;;;;;5012825;28;20050;-63
2023/11/01 05:43:13;;;;;;;1.40;1.25;;;7.40;99.90;;;;;;5021636;28;20042;-63
2023/11/01 05:45:45;;;;;;;4.38;1.30;;;7.40;99.90;;;;;;5017909;28;20411;-63
2023/11/01 05:48:12;;;;;;;2.85;1.73;;;7.40;99.90;;;;;;5019266;28;20061;-63
2023/11/01 05:50:44;;;;;;;5.60;2.65;;;7.30;99.90;;;;;;5003904;28;20046;-63
2023/11/01 05:53:16;;;;;;;3.03;2.42;;;7.30;99.90;;;;;;5022291;28;20046;-63
2023/11/01 05:55:48;;;;;;;2.00;1.50;;;7.30;99.90;;;;;;5025827;28;20079;-64
2023/11/01 05:58:20;;;;;;;1.60;0.82;;;7.20;99.90;;;;;;5017376;28;20045;-63
2023/11/01 06:00:53;;;;;;;1.05;0.80;;;7.20;99.90;;;;;;5008564;28;20042;-63
2023/11/01 06:03:25;;;;;;;1.70;0.60;;;7.20;99.90;;;;;;5005617;28;20121;-64
2023/11/01 06:05:57;;;;;;;1.85;0.60;;;7.20;99.90;;;;;;5011879;28;20038;-63
2023/11/01 06:08:29;;;;;;;2.53;1.45;;;7.20;99.90;;;;;;5009614;28;20042;-63
2023/11/01 06:11:02;;;;;;;1.20;0.47;;;7.20;99.90;;;;;;5017203;28;20045;-63
2023/11/01 06:13:33;;;;;;;1.38;0.63;;;7.20;99.90;;;;;;5016586;28;20490;-63
2023/11/01 06:16:07;;;;;;;1.42;0.55;;;7.20;99.90;;;;;;5018427;28;20131;-63
2023/11/01 06:18:39;;;;;;;1.73;0.50;;;7.20;99.90;;;;;;5019942;28;20134;-63
2023/11/01 06:21:11;;;;;;;1.40;0.50;;;7.20;99.90;;;;;;5017573;28;20077;-63
2023/11/01 06:23:38;;;;;;;10.75;6.28;;;7.20;99.90;;;;;;5023292;28;20045;-63
2023/11/01 06:26:15;;;;;;;1.70;0.77;;;7.20;99.90;;;;;;5023265;28;20051;-63
2023/11/01 06:28:43;;;;;;;2.38;1.20;;;7.10;99.90;;;;;;5025187;28;20520;-63
2023/11/01 06:31:16;;;;;;;1.85;0.90;;;7.20;99.90;;;;;;5027696;28;20444;-64
2023/11/01 06:33:48;;;;;;;1.58;0.68;;;7.20;99.90;;;;;;5028247;28;20045;-63
2023/11/01 06:36:20;;;;;;;1.20;0.45;;;7.20;99.90;;;;;;4991534;28;20414;-63
2023/11/01 06:38:47;;;;;;;3.85;1.65;;;7.20;99.90;;;;;;5012839;28;20041;-63
2023/11/01 06:41:19;;;;;;;0.60;0.40;;;7.20;99.90;;;;;;5022873;28;20057;-63
2023/11/01 06:43:51;;;;;;;1.40;0.50;;;7.20;99.90;;;;;;5016749;28;20132;-63
2023/11/01 06:46:18;;;;;;;1.80;0.60;;;7.30;99.90;;;;;;5017634;28;20140;-63
2023/11/01 06:48:50;;;;;;;2.17;0.38;;;7.30;99.90;;;;;;5015992;28;20046;-63
2023/11/01 06:51:22;;;;;;;3.28;1.05;;;7.30;99.90;;;;;;5026585;28;20049;-63
2023/11/01 06:53:53;;;;;;;2.75;0.50;;;7.30;99.90;;;;;;5019113;28;20061;-63
2023/11/01 06:56:25;;;;;;;0.80;0.40;;;7.30;99.90;;;;;;5020902;28;20049;-63
2023/11/01 06:58:57;;;;;;;7.50;1.35;;;7.30;99.90;;;;;;5024941;28;20061;-64
2023/11/01 07:01:23;;;;;;;1.45;0.50;;;7.30;99.90;;;;;;5013015;28;20379;-63
2023/11/01 07:03:55;;;;;;;1.58;0.50;;;7.30;99.90;;;;;;5028258;28;20575;-63
2023/11/01 07:06:22;;;;;;;3.72;2.15;;;7.40;99.90;;;;;;5024122;28;20042;-63
2023/11/01 07:08:49;;;;;;;2.60;1.40;;;7.40;99.90;;;;;;5014584;28;20162;-63
2023/11/01 07:11:24;;;;;;;5.75;3.03;;;7.40;99.90;;;;;;5019609;28;20037;-63
2023/11/01 07:13:56;;;;;;;22.92;12.48;;;7.40;99.90;;;;;;5019562;28;20053;-64
2023/11/01 07:16:27;;;;;;;21.35;9.82;;;7.40;99.90;;;;;;5017537;28;20048;-63
2023/11/01 07:18:59;;;;;;;6.30;3.33;;;7.40;99.90;;;;;;5020935;28;20049;-63
2023/11/01 07:21:31;;;;;;;18.05;8.00;;;7.40;99.90;;;;;;5017904;28;20060;-63
2023/11/01 07:24:03;;;;;;;13.20;7.18;;;7.50;99.90;;;;;;5015340;28;20641;-63
2023/11/01 07:26:36;;;;;;;17.02;7.68;;;7.50;99.90;;;;;;5016219;28;20038;-63
2023/11/01 07:29:09;;;;;;;13.90;7.00;;;7.50;99.90;;;;;;5023704;28;20472;-63
2023/11/01 07:31:40;;;;;;;13.50;7.95;;;7.60;99.90;;;;;;5025104;28;20506;-63
2023/11/01 07:34:12;;;;;;;19.13;10.65;;;7.60;99.90;;;;;;5026253;28;20123;-63
2023/11/01 07:36:44;;;;;;;40.28;25.92;;;7.60;99.90;;;;;;5019498;28;20514;-63
2023/11/01 07:39:16;;;;;;;35.42;20.75;;;7.70;99.90;;;;;;5015583;28;20503;-63
2023/11/01 07:41:48;;;;;;;32.25;18.25;;;7.70;99.90;;;;;;5029356;28;20050;-63
2023/11/01 07:44:15;;;;;;;11.90;6.25;;;7.80;99.90;;;;;;5025376;28;20129;-63
2023/11/01 07:46:42;;;;;;;7.50;4.50;;;7.90;99.90;;;;;;5024999;28;20053;-63
2023/11/01 07:49:08;;;;;;;24.58;13.88;;;7.90;99.90;;;;;;5029234;28;20044;-64
2023/11/01 07:51:41;;;;;;;34.92;17.92;;;8.00;99.90;;;;;;5010020;28;20418;-63
2023/11/01 07:54:09;;;;;;;32.67;17.98;;;8.10;99.90;;;;;;5022393;28;20033;-62
2023/11/01 07:56:36;;;;;;;37.67;20.27;;;8.10;99.90;;;;;;5026103;28;20497;-63
2023/11/01 07:59:03;;;;;;;111.15;55.83;;;8.20;99.90;;;;;;5019440;28;20042;-63
2023/11/01 08:01:31;;;;;;;69.13;37.70;;;8.20;99.90;;;;;;5021423;28;20041;-63
2023/11/01 08:04:03;;;;;;;44.10;23.35;;;8.30;99.90;;;;;;5031024;28;20589;-63
2023/11/01 08:06:37;;;;;;;106.53;53.47;;;8.40;99.90;;;;;;5020079;28;20518;-63
2023/11/01 08:09:11;;;;;;;19.20;10.18;;;8.40;99.90;;;;;;5013822;28;20044;-66
2023/11/01 08:11:43;;;;;;;8.70;4.80;;;8.50;99.90;;;;;;5011482;28;20042;-64
2023/11/01 08:14:10;;;;;;;5.55;2.97;;;8.60;99.90;;;;;;5013355;28;20121;-64
2023/11/01 08:16:42;;;;;;;6.93;2.90;;;8.70;99.90;;;;;;5015959;28;20569;-68
2023/11/01 08:19:17;;;;;;;3.15;1.50;;;8.80;99.90;;;;;;5018867;28;20041;-63
2023/11/01 08:21:49;;;;;;;3.65;1.25;;;8.90;99.90;;;;;;5023405;28;20061;-63
2023/11/01 08:24:21;;;;;;;2.03;1.50;;;9.00;99.90;;;;;;5021413;28;20045;-63
2023/11/01 08:26:52;;;;;;;3.30;1.25;;;9.00;99.90;;;;;;5020930;28;20510;-64
2023/11/01 08:29:19;;;;;;;2.95;0.98;;;9.10;99.90;;;;;;5027753;28;20841;-63
2023/11/01 08:31:51;;;;;;;2.47;0.63;;;9.20;99.90;;;;;;5025740;28;20049;-64
2023/11/01 08:34:23;;;;;;;1.25;0.60;;;9.20;99.90;;;;;;5009432;28;20539;-63
2023/11/01 08:36:55;;;;;;;1.25;0.60;;;9.40;99.90;;;;;;5007785;28;20156;-63
2023/11/01 08:39:27;;;;;;;1.20;0.52;;;9.40;99.90;;;;;;5028875;28;20508;-63
2023/11/01 08:41:59;;;;;;;1.15;0.65;;;9.60;99.90;;;;;;5022856;28;20049;-63
2023/11/01 08:44:31;;;;;;;3.78;1.35;;;9.70;99.90;;;;;;5010885;28;20049;-63
2023/11/01 08:47:04;;;;;;;6.95;1.75;;;9.80;99.90;;;;;;5022846;28;20038;-63
2023/11/01 08:49:36;;;;;;;;;;;9.90;99.90;;;;;;5014681;28;20054;-63
2023/11/01 08:52:08;;;;;;;4.18;2.33;;;10.00;99.90;;;;;;5029885;28;19921;-63
2023/11/01 08:54:40;;;;;;;4.43;1.55;;;10.10;99.90;;;;;;5014028;28;20033;-63
2023/11/01 08:57:07;;;;;;;7.95;3.38;;;10.10;99.90;;;;;;5013833;28;20056;-63
2023/11/01 08:59:34;;;;;;;4.05;1.77;;;10.20;99.90;;;;;;5004866;28;20042;-63
2023/11/01 09:02:06;;;;;;;1.42;0.65;;;10.30;99.90;;;;;;5015910;28;20064;-63
2023/11/01 09:04:37;;;;;;;1.35;0.70;;;10.30;99.90;;;;;;5005267;28;20049;-63
2023/11/01 09:07:09;;;;;;;1.27;0.70;;;10.50;99.90;;;;;;5008772;28;20422;-63
2023/11/01 09:09:36;;;;;;;1.67;0.80;;;10.60;99.90;;;;;;5010983;28;20048;-63
2023/11/01 09:12:09;;;;;;;1.00;0.52;;;10.60;99.90;;;;;;5014165;28;20037;-63
2023/11/01 09:14:41;;;;;;;1.38;0.60;;;10.70;99.90;;;;;;5023320;28;20046;-63
2023/11/01 09:17:14;;;;;;;0.50;0.40;;;10.80;99.90;;;;;;5016739;28;20049;-63
2023/11/01 09:19:46;;;;;;;1.23;0.30;;;10.90;99.90;;;;;;5016928;28;20064;-63
2023/11/01 09:22:18;;;;;;;0.82;0.35;;;11.10;99.90;;;;;;5020852;28;20596;-63
2023/11/01 09:24:49;;;;;;;0.68;0.28;;;11.20;99.90;;;;;;5022476;28;20045;-63
2023/11/01 09:27:21;;;;;;;0.52;0.20;;;11.40;99.90;;;;;;5021549;28;20116;-63
2023/11/01 09:29:53;;;;;;;0.50;0.25;;;11.50;99.90;;;;;;5015896;28;20141;-63
2023/11/01 09:32:20;;;;;;;1.52;0.35;;;11.60;99.90;;;;;;5016509;28;20052;-68
2023/11/01 09:34:52;;;;;;;0.95;0.40;;;11.70;99.90;;;;;;5015136;28;20041;-63
2023/11/01 09:37:24;;;;;;;0.90;0.40;;;11.90;99.90;;;;;;5009067;28;20058;-63
2023/11/01 09:39:56;;;;;;;0.32;0.25;;;11.90;99.90;;;;;;5028218;28;20046;-63
2023/11/01 09:42:28;;;;;;;0.85;0.30;;;12.00;99.90;;;;;;5020161;28;20676;-63
2023/11/01 09:45:02;;;;;;;1.40;0.30;;;12.10;99.90;;;;;;5015920;28;20042;-63
2023/11/01 09:47:33;;;;;;;;;;;12.20;99.90;;;;;;5022132;28;20045;-63
2023/11/01 09:50:00;;;;;;;0.80;0.40;;;12.30;99.90;;;;;;5025587;28;20386;-63
2023/11/01 09:52:32;;;;;;;2.15;0.55;;;12.30;99.90;;;;;;5022117;28;20041;-63
2023/11/01 09:55:00;;;;;;;0.93;0.50;;;12.40;99.90;;;;;;5028074;28;20040;-63
2023/11/01 09:57:29;;;;;;;0.55;0.30;;;12.40;99.90;;;;;;5015970;28;20084;-63
2023/11/01 09:59:56;;;;;;;1.23;0.47;;;12.50;99.90;;;;;;5018600;28;20042;-61
2023/11/01 10:02:30;;;;;;;0.60;0.40;;;12.50;99.90;;;;;;5024651;28;20053;-63
2023/11/01 10:05:03;;;;;;;0.63;0.38;;;12.60;99.90;;;;;;5021144;28;20049;-63
2023/11/01 10:07:34;;;;;;;2.03;0.57;;;12.70;99.90;;;;;;5025598;28;20069;-63
2023/11/01 10:10:07;;;;;;;1.35;0.50;;;12.80;99.90;;;;;;5016109;28;20122;-63
2023/11/01 10:12:34;;;;;;;1.38;0.57;;;12.80;99.90;;;;;;5011296;28;20049;-63
2023/11/01 10:15:02;;;;;;;0.80;0.30;;;12.90;99.90;;;;;;5014786;28;20048;-63
2023/11/01 10:17:34;;;;;;;0.85;0.32;;;12.90;99.90;;;;;;5014274;28;20033;-63
2023/11/01 10:20:20;;;;;;;2.75;0.35;;;13.00;99.90;;;;;;5016240;28;20056;-63
2023/11/01 10:22:53;;;;;;;0.63;0.30;;;13.10;99.90;;;;;;5018806;28;20046;-63
2023/11/01 10:25:25;;;;;;;1.00;0.37;;;13.20;99.90;;;;;;5015175;28;20050;-63
2023/11/01 10:27:57;;;;;;;1.65;0.40;;;13.30;99.90;;;;;;5027847;28;20277;-63
2023/11/01 10:30:29;;;;;;;0.47;0.32;;;13.40;99.90;;;;;;5017156;28;20048;-63
2023/11/01 10:33:01;;;;;;;0.10;0.10;;;13.40;99.90;;;;;;5010845;28;20033;-63
2023/11/01 10:35:34;;;;;;;1.38;0.40;;;13.40;99.90;;;;;;5008045;28;20072;-63
2023/11/01 10:38:02;;;;;;;2.97;0.30;;;13.50;99.90;;;;;;5008951;28;20126;-63
2023/11/01 10:40:34;;;;;;;1.02;0.45;;;13.50;99.90;;;;;;5012729;28;20633;-63
2023/11/01 10:43:07;;;;;;;1.70;0.43;;;13.60;99.90;;;;;;5009251;28;20052;-63
2023/11/01 10:45:39;;;;;;;0.80;0.40;;;13.70;99.90;;;;;;5009509;28;20042;-63
2023/11/01 10:48:11;;;;;;;1.17;0.30;;;13.80;99.90;;;;;;5000725;28;20029;-63
2023/11/01 10:50:39;;;;;;;1.30;0.45;;;13.90;99.90;;;;;;5013130;28;20609;-63
2023/11/01 10:53:11;;;;;;;0.60;0.30;;;13.90;99.90;;;;;;5008280;28;20117;-62
2023/11/01 10:55:44;;;;;;;2.10;0.43;;;13.90;99.90;;;;;;5013831;28;20037;-63
2023/11/01 10:58:24;;;;;;;2.28;0.40;;;14.00;99.90;;;;;;5013328;28;20049;-63
2023/11/01 11:01:15;;;;;;;1.17;0.57;;;14.10;99.90;;;;;;5013541;28;20029;-63
2023/11/01 11:04:02;;;;;;;0.63;0.40;;;14.10;99.90;;;;;;5015332;28;20042;-63
2023/11/01 11:06:44;;;;;;;0.80;0.40;;;14.20;99.90;;;;;;5024305;28;20068;-63
2023/11/01 11:09:23;;;;;;;1.88;0.45;;;14.30;99.90;;;;;;5009947;28;20046;-63
2023/11/01 11:12:24;;;;;;;1.20;0.60;;;14.40;99.90;;;;;;5006591;28;20040;-63
2023/11/01 11:14:57;;;;;;;2.97;0.30;;;14.50;99.90;;;;;;5011267;28;20042;-63
2023/11/01 11:17:24;;;;;;;1.00;0.40;;;14.40;99.90;;;;;;5007789;28;20041;-63
2023/11/01 11:20:05;;;;;;;1.08;0.43;;;14.30;99.90;;;;;;5014745;28;20557;-62
2023/11/01 11:23:08;;;;;;;0.90;0.50;;;14.40;99.90;;;;;;5011892;28;20038;-63
2023/11/01 11:25:42;;;;;;;1.75;0.40;;;14.40;99.90;;;;;;4998856;28;20175;-63
2023/11/01 11:28:22;;;;;;;3.10;0.30;;;14.50;99.90;;;;;;5008323;28;20038;-63
2023/11/01 11:31:03;;;;;;;3.00;0.50;;;14.70;99.90;;;;;;5012754;28;20042;-63
2023/11/01 11:33:41;;;;;;;2.63;0.45;;;14.80;99.90;;;;;;5012533;28;20044;-63
2023/11/01 11:36:18;;;;;;;0.57;0.30;;;14.90;99.90;;;;;;5009756;28;20041;-63
2023/11/01 11:39:10;;;;;;;2.28;0.47;;;14.90;99.90;;;;;;5011482;28;20042;-63
2023/11/01 11:41:44;;;;;;;1.73;0.32;;;14.90;99.90;;;;;;5001726;28;20048;-63
2023/11/01 11:44:19;;;;;;;2.38;0.70;;;14.80;99.90;;;;;;5002121;28;20487;-63
2023/11/01 11:46:54;;;;;;;1.85;0.50;;;14.70;99.90;;;;;;5006379;28;20183;-63
2023/11/01 11:49:30;;;;;;;1.55;0.50;;;14.60;99.90;;;;;;5003979;28;20113;-63
2023/11/01 11:52:11;;;;;;;1.83;0.55;;;14.60;99.90;;;;;;5015502;28;20045;-62
2023/11/01 11:54:44;;;;;;;1.55;0.50;;;14.60;99.90;;;;;;5011394;28;20053;-63
2023/11/01 11:57:17;;;;;;;1.60;0.40;;;14.60;99.90;;;;;;5018474;28;20072;-63
2023/11/01 11:59:49;;;;;;;2.38;0.50;;;14.60;99.90;;;;;;5023087;28;20044;-63
2023/11/01 12:02:21;;;;;;;3.30;1.00;;;14.70;99.90;;;;;;5015677;28;20060;-63
2023/11/01 12:04:49;;;;;;;0.47;0.30;;;14.70;99.90;;;;;;5015388;28;20759;-63
2023/11/01 12:07:22;;;;;;;2.28;0.70;;;14.80;99.90;;;;;;5014370;28;20108;-63
2023/11/01 12:09:56;;;;;;;1.95;0.60;;;14.80;99.90;;;;;;5013539;28;20125;-63
2023/11/01 12:12:27;;;;;;;2.92;0.50;;;14.80;99.90;;;;;;4987455;28;20463;-63
2023/11/01 12:15:00;;;;;;;2.78;0.50;;;14.70;99.90;;;;;;5017926;28;20406;-63
2023/11/01 12:17:33;;;;;;;1.80;0.60;;;14.60;99.90;;;;;;5005310;28;20569;-63
2023/11/01 12:20:05;;;;;;;5.47;1.33;;;14.60;99.90;;;;;;5007209;28;20053;-63
2023/11/01 12:22:37;;;;;;;1.45;0.38;;;14.50;99.90;;;;;;5006483;28;20773;-63
2023/11/01 12:25:09;;;;;;;2.38;0.50;;;14.50;99.90;;;;;;5017369;28;20048;-63
2023/11/01 12:27:42;;;;;;;0.80;0.40;;;14.50;99.90;;;;;;5007735;28;20050;-63
2023/11/01 12:30:20;;;;;;;1.30;0.50;;;14.50;99.90;;;;;;5016281;28;20042;-63
2023/11/01 12:32:53;;;;;;;1.33;0.50;;;14.60;99.90;;;;;;5013413;28;20126;-63
2023/11/01 12:35:25;;;;;;;1.85;0.82;;;14.60;99.90;;;;;;5010969;28;20053;-63
2023/11/01 12:38:01;;;;;;;1.80;0.40;;;14.60;99.90;;;;;;5014201;28;20663;-63
2023/11/01 12:40:28;;;;;;;2.42;1.50;;;14.70;99.90;;;;;;5007331;28;20054;-63
2023/11/01 12:43:11;;;;;;;3.15;0.60;;;14.70;99.90;;;;;;5011917;28;20064;-62
2023/11/01 12:45:37;;;;;;;1.13;0.30;;;14.80;99.90;;;;;;5015217;28;20050;-63
2023/11/01 12:48:10;;;;;;;3.55;1.08;;;15.00;99.90;;;;;;5029764;28;20823;-63
2023/11/01 12:50:42;;;;;;;1.48;0.40;;;15.00;99.90;;;;;;5007576;28;20042;-63
2023/11/01 12:53:14;;;;;;;4.28;0.40;;;15.20;99.90;;;;;;5016718;28;20043;-63
2023/11/01 12:55:46;;;;;;;2.17;0.40;;;15.40;99.90;;;;;;5009399;28;20488;-63
2023/11/01 12:58:18;;;;;;;3.15;0.47;;;15.50;99.90;;;;;;5013439;28;20140;-63
2023/11/01 13:00:50;;;;;;;2.38;0.45;;;15.60;99.90;;;;;;5012321;28;20056;-63
2023/11/01 13:03:22;;;;;;;2.38;0.40;;;15.70;99.90;;;;;;5016160;28;20046;-63
2023/11/01 13:05:54;;;;;;;2.80;0.30;;;15.70;99.90;;;;;;5018760;28;20049;-63
2023/11/01 13:08:28;;;;;;;1.43;0.40;;;15.70;99.90;;;;;;5011994;28;20030;-64
2023/11/01 13:10:59;;;;;;;;;;;15.70;99.90;;;;;;5006017;28;20088;-63
2023/11/01 13:13:31;;;;;;;1.40;0.38;;;15.50;99.90;;;;;;5010516;28;19926;-63
2023/11/01 13:16:04;;;;;;;2.35;0.60;;;15.40;99.90;;;;;;5012097;28;20038;-63